Clear Lake, IA (50428)

12:04 AM CDT on August 28, 2015 (GMT -0500)
KIACLEAR2 | Change Station
CLOSE
Current Station
Personal Weather Station
Location: Clear Lake, IA
Elevation: 1263 ft
Nearby Weather Stations

Elev 1263 ft 43.13 °N, 93.38 °W | Updated 2 minutes ago

Mostly Cloudy
Mostly Cloudy
61.8 °F
Feels Like 61.8 °F
N
1.0
Wind Variable Wind from ESE
Gusts 8.0 mph

Today
High -- | Low -- °F
--% Chance of Precip.
Yesterday
High -- | Low -- °F
Precip. -- in
6:33 AM 7:55 PM
Waxing Gibbous, 96% visible
Pressure 30.02 in
Visibility 10.0 miles
Clouds Few 9500 ft
Mostly Cloudy 12000 ft
Dew Point 57 °F
Humidity 85%
Rainfall 0.00 in
Snow Depth Not available.
UV 0 out of 12
Pollen 10.10 out of 12
Air Quality Not available.
Flu Activity Not available.
METAR KMCW 280453Z AUTO 15010KT 10SM FEW095 BKN120 18/16 A3004 RMK AO2 LTG DSNT W SLP164 T01780156

More Conditions Fewer Conditions

Pressure 30.02 in
Visibility 10.0 miles
Clouds Few 9500 ft
Mostly Cloudy 12000 ft
Dew Point 57 °F
Humidity 85%
Rainfall 0.00 in
Snow Depth Not available.
UV 0 out of 12
Pollen 10.10 out of 12
Air Quality Not available.
Flu Activity Not available.
METAR KMCW 280453Z AUTO 15010KT 10SM FEW095 BKN120 18/16 A3004 RMK AO2 LTG DSNT W SLP164 T01780156

More Conditions Fewer Conditions

10-Day Weather Forecast

Almanac

Astronomy

Aug. 28, 2015 Rise Set
Actual Time 6:33 AM CDT 7:55 PM CDT
Civil Twilight 6:03 AM CDT 8:25 PM CDT
Nautical Twilight 5:27 AM CDT 9:00 PM CDT
Astronomical Twilight 4:50 AM CDT 9:38 PM CDT
Moon 7:10 PM CDT 5:07 AM CDT
Length of Visible Light 14h 21m
Length of Day
13h 22m
Tomorrow will be 2m 48s shorter.
Waxing Gibbous, 96% of the Moon is Illuminated
Today
Waxing Gibbous
Aug 29
Full
Sep 5
Last Quarter
Sep 13
New
Sep 21
First Quarter

Today's Extremes

State Highs State Lows

Community

WunderPhotos

Upload Photos

1,850,338 photos uploaded!

Nearby

Snow Depth

Station Depth Elevation
No new snow has been reported.

Earthquake Activity

City Distance Mag. Time & Date
No recent earthquake activity has been reported nearby.
Minimum magnitude displayed is 2.5.

Coastal Water Temperatures

Place Temperature
No Stations Reporting

Nearby Weather Stations